Morton S Bouchard Jr — WSE9678 — position and weather

sailwx.info

Track history (hours):
 
Tides and Currents Weather Stations Pressure Air Temp Water Temp Dewpoint Dewpoint Depression Visibility Wind Speed Wind Dir Waves Ship Positions

Morton S Bouchard Jr

Owner: BOUCHARD TRANSPORTATION CO INC, MELVILLE, NY. More information available from US FCC via Universal Licensing System and Coast Guard Vessel Documentation Center.

Last reported at 2017-Jun-26 18:30 UTC. Time now 2017-Jun-26 18:49 UTC.
Position N 39°22' W 075°27'.

Length 33 m; draft 5.6 m.

Type: Tug. MMSI: 367006550.

Date/timePositionNaut miles runAvg speedWind from/ knotsBaromVisibWave heightAir tempDewpointWater temp
2017-Jun-26 18:30N 39°22' W 075°27'4 8.1
2017-Jun-26 18:00N 39°19' W 075°24'4 8.4
2017-Jun-26 17:30N 39°16' W 075°20'4 8.4
2017-Jun-26 17:00N 39°12' W 075°17'4 8.4
2017-Jun-26 16:30N 39°08' W 075°14'4 8.4
2017-Jun-26 16:00N 39°05' W 075°11'4 8.3
2017-Jun-26 15:29N 39°01' W 075°09'2 3.1
2017-Jun-26 14:59N 38°59' W 075°08'46 5.2
2017-Jun-26 06:05N 39°21' W 074°16'2 6.3
2017-Jun-26 05:47N 39°22' W 074°15'4 6.3
2017-Jun-26 05:11N 39°26' W 074°12'2 6.3
2017-Jun-26 04:55N 39°27' W 074°11'3 6.3
2017-Jun-26 04:30N 39°29' W 074°09'4 6.3
2017-Jun-26 03:52N 39°33' W 074°07'3 6.3
2017-Jun-26 03:27N 39°35' W 074°05'3 6.1
2017-Jun-26 02:59N 39°38' W 074°03'4 6.1
2017-Jun-26 02:20N 39°41' W 074°01'2 5.9
2017-Jun-26 01:59N 39°43' W 074°00'3 5.9
2017-Jun-26 01:30N 39°46' W 073°59'3 5.7
2017-Jun-26 00:59N 39°49' W 073°58'3 6.2
2017-Jun-26 00:30N 39°52' W 073°57'3 6.2
2017-Jun-25 23:58N 39°55' W 073°57'3 6.0
2017-Jun-25 23:26N 39°58' W 073°57'3 5.9
2017-Jun-25 23:00N 40°01' W 073°57'3 6.0
2017-Jun-25 22:29N 40°04' W 073°57'3 6.0
2017-Jun-25 22:00N 40°07' W 073°56'3 6.1
2017-Jun-25 21:30N 40°10' W 073°56'3 6.3
2017-Jun-25 20:58N 40°13' W 073°56'3 6.5
2017-Jun-25 20:30N 40°16' W 073°56'4 6.5
2017-Jun-25 19:56N 40°20' W 073°55'3 6.3
2017-Jun-25 19:25N 40°23' W 073°55'3 6.8
2017-Jun-25 19:00N 40°26' W 073°54'4 7.0
2017-Jun-25 18:29N 40°29' W 073°56'4 8.5
2017-Jun-25 18:00N 40°31' W 074°00'3 6.5
2017-Jun-25 17:30N 40°35' W 074°02'1 2.2
2017-Jun-25 17:00N 40°36' W 074°02'3 5.1
2017-Jun-25 16:30N 40°38' W 074°03'4 7.5
2017-Jun-25 16:00N 40°42' W 074°00'3 6.9
2017-Jun-25 15:30N 40°44' W 073°58'3 5.8
2017-Jun-25 15:00N 40°47' W 073°56'4 4.2
2017-Jun-25 14:00N 40°48' W 073°50'2 4.8
2017-Jun-25 13:30N 40°48' W 073°47'3 5.3
2017-Jun-25 13:00N 40°51' W 073°46'3 5.6
2017-Jun-25 12:26N 40°53' W 073°43'48 1.8
2017-Jun-24 09:13N 41°01' W 072°40'1 3.7
2017-Jun-24 08:54N 41°01' W 072°42'3 6.7
2017-Jun-24 08:31N 41°02' W 072°45'46 7.0
2017-Jun-24 01:54N 40°51' W 073°45'3 8.8
2017-Jun-24 01:30N 40°48' W 073°47'5 9.3
2017-Jun-24 01:00N 40°48' W 073°53'4 7.8
2017-Jun-24 00:30N 40°46' W 073°57'5 9.5
2017-Jun-24 00:00N 40°42' W 074°00'4 8.8
2017-Jun-23 23:31N 40°38' W 074°03'4 8.2
2017-Jun-23 23:00N 40°34' W 074°02'4 8.8
2017-Jun-23 22:30N 40°30' W 073°58'4 7.2
2017-Jun-23 22:01N 40°28' W 073°54'36 9.7
2017-Jun-23 18:18N 39°52' W 073°58'3 9.4
2017-Jun-23 17:59N 39°49' W 073°59'5 9.4
2017-Jun-23 17:30N 39°45' W 073°59'5 9.5
2017-Jun-23 17:00N 39°41' W 074°02'5 9.4
2017-Jun-23 16:29N 39°36' W 074°05'5 9.4
2017-Jun-23 15:58N 39°32' W 074°08'5 9.5
2017-Jun-23 15:27N 39°28' W 074°11'39 9.6
2017-Jun-23 11:22N 38°58' W 074°43'3 9.3
2017-Jun-23 11:00N 38°55' W 074°46'5 9.2
2017-Jun-23 10:31N 38°51' W 074°49'4 8.1
2017-Jun-23 10:00N 38°49' W 074°53'4 8.3
2017-Jun-23 09:31N 38°48' W 074°59'4 6.5
2017-Jun-23 08:52N 38°51' W 075°03'4 8.7
2017-Jun-23 08:27N 38°54' W 075°05'4 9.3
2017-Jun-23 08:00N 38°58' W 075°07'610.1
2017-Jun-23 07:28N 39°03' W 075°10'610.9
2017-Jun-23 06:56N 39°08' W 075°14'511.9
2017-Jun-23 06:30N 39°12' W 075°17'612.2
2017-Jun-23 06:00N 39°17' W 075°22'612.1
2017-Jun-23 05:30N 39°21' W 075°27'510.6
2017-Jun-23 05:00N 39°25' W 075°31'5 9.3
2017-Jun-23 04:31N 39°30' W 075°34'4 8.9
2017-Jun-23 04:01N 39°34' W 075°33'4 7.8
2017-Jun-23 03:31N 39°38' W 075°34'4 7.6
2017-Jun-23 03:00N 39°41' W 075°31'4 7.4
2017-Jun-23 02:30N 39°44' W 075°30'3 6.8
2017-Jun-23 02:00N 39°47' W 075°27'3 6.8
2017-Jun-23 01:30N 39°49' W 075°23'1 1.7
2017-Jun-23 01:00N 39°49' W 075°24'0 0.2
2017-Jun-23 00:30N 39°49' W 075°24'0 0.0
2017-Jun-23 00:00N 39°49' W 075°24'0 0.0
2017-Jun-22 23:30N 39°49' W 075°24'0 0.0
2017-Jun-22 23:00N 39°49' W 075°24'0 0.0
2017-Jun-22 22:30N 39°49' W 075°24'0 0.0
2017-Jun-22 22:00N 39°49' W 075°24'0 0.0
2017-Jun-22 21:30N 39°49' W 075°24'3 5.4
2017-Jun-22 21:00N 39°50' W 075°22'510.2
2017-Jun-22 20:30N 39°51' W 075°15'0 0.0
2017-Jun-22 20:00N 39°51' W 075°15'0 0.0
2017-Jun-22 19:30N 39°51' W 075°15'0 0.0
2017-Jun-22 19:01N 39°51' W 075°15'0 0.0
2017-Jun-22 18:30N 39°51' W 075°15'0 0.0
2017-Jun-22 18:00N 39°51' W 075°15'0 0.0
2017-Jun-22 17:30N 39°51' W 075°15'0 0.0
2017-Jun-22 17:01N 39°51' W 075°15'0 0.0
2017-Jun-22 16:30N 39°51' W 075°15'0 0.0
2017-Jun-22 16:00N 39°51' W 075°15'0 0.0
2017-Jun-22 15:31N 39°51' W 075°15'0 0.1
2017-Jun-22 15:01N 39°51' W 075°15'0 0.0
2017-Jun-22 14:30N 39°51' W 075°15'0 0.0
2017-Jun-22 13:30N 39°51' W 075°15'0 1.0
2017-Jun-22 13:00N 39°51' W 075°16'1 3.0
2017-Jun-22 12:31N 39°51' W 075°17'611.7
2017-Jun-22 12:01N 39°49' W 075°24'0 0.1
2017-Jun-22 11:30N 39°49' W 075°24'2 3.2
2017-Jun-22 11:00N 39°48' W 075°26'3 6.3
2017-Jun-22 10:31N 39°45' W 075°29'3 5.9
2017-Jun-22 10:01N 39°43' W 075°30'3 5.7
2017-Jun-22 09:31N 39°40' W 075°32'3 5.3
2017-Jun-22 09:01N 39°38' W 075°34'3 5.0
2017-Jun-22 08:30N 39°36' W 075°34'2 4.2
2017-Jun-22 08:00N 39°34' W 075°34'4 7.9
2017-Jun-22 07:31N 39°33' W 075°39'4 7.4
2017-Jun-22 07:00N 39°33' W 075°43'3 6.9
2017-Jun-22 06:31N 39°32' W 075°48'3 6.3
2017-Jun-22 06:00N 39°32' W 075°52'3 6.2
2017-Jun-22 05:31N 39°30' W 075°55'3 6.4
2017-Jun-22 05:01N 39°28' W 075°58'3 6.4
2017-Jun-22 04:30N 39°25' W 076°01'3 6.2
2017-Jun-22 04:00N 39°23' W 076°04'3 6.2
2017-Jun-22 03:30N 39°22' W 076°08'3 6.0
2017-Jun-22 03:01N 39°20' W 076°11'3 5.8
2017-Jun-22 02:31N 39°18' W 076°13'3 6.2
2017-Jun-22 02:00N 39°15' W 076°14'3 6.4
2017-Jun-22 01:30N 39°12' W 076°16'3 6.8
2017-Jun-22 01:00N 39°10' W 076°18'3 6.5
2017-Jun-22 00:31N 39°07' W 076°20'3 6.4
2017-Jun-22 00:01N 39°03' W 076°21'3 7.0
2017-Jun-21 23:30N 39°00' W 076°23'4 7.5
2017-Jun-21 23:00N 38°57' W 076°24'4 7.6
2017-Jun-21 22:30N 38°53' W 076°25'4 7.8
2017-Jun-21 22:00N 38°49' W 076°26'24 0.7
2017-Jun-20 10:10N 38°26' W 076°22'210.3
2017-Jun-20 09:57N 38°28' W 076°23'510.2
2017-Jun-20 09:29N 38°32' W 076°26'6 9.7
2017-Jun-20 08:49N 38°38' W 076°27'3 9.7
2017-Jun-20 08:31N 38°41' W 076°28'5 9.6
2017-Jun-20 07:57N 38°46' W 076°28'4 9.4
2017-Jun-20 07:30N 38°51' W 076°26'5 9.3
2017-Jun-20 07:01N 38°55' W 076°24'4 8.8
2017-Jun-20 06:31N 38°59' W 076°23'4 8.4
2017-Jun-20 06:01N 39°03' W 076°21'4 8.6
2017-Jun-20 05:30N 39°07' W 076°20'4 8.0
2017-Jun-20 05:00N 39°11' W 076°17'5 9.1
2017-Jun-20 04:30N 39°15' W 076°14'5 9.4
2017-Jun-20 04:00N 39°19' W 076°12'5 9.8
2017-Jun-20 03:30N 39°22' W 076°07'510.0
2017-Jun-20 03:00N 39°25' W 076°02'510.2
2017-Jun-20 02:30N 39°29' W 075°57'510.4
2017-Jun-20 02:00N 39°32' W 075°52'510.2
2017-Jun-20 01:31N 39°32' W 075°46'510.5
2017-Jun-20 01:01N 39°33' W 075°39'4 8.9
2017-Jun-20 00:30N 39°34' W 075°33'4 7.3
2017-Jun-20 00:00N 39°38' W 075°34'4 7.5
2017-Jun-19 23:31N 39°41' W 075°31'4 7.3
2017-Jun-19 23:00N 39°44' W 075°30'4 7.1
2017-Jun-19 22:31N 39°47' W 075°27'3 5.0
2017-Jun-19 22:00N 39°49' W 075°24'0 0.1
2017-Jun-19 21:30N 39°49' W 075°24'0 0.0
2017-Jun-19 21:00N 39°49' W 075°24'0 0.0
2017-Jun-19 20:31N 39°49' W 075°24'0 0.1
2017-Jun-19 20:00N 39°49' W 075°24'0 0.0
2017-Jun-19 19:30N 39°49' W 075°24'0 0.0
2017-Jun-19 19:00N 39°49' W 075°24'0 0.0
2017-Jun-19 18:30N 39°49' W 075°24'0 0.0
2017-Jun-19 18:00N 39°49' W 075°24'0 0.0
2017-Jun-19 17:30N 39°49' W 075°24'0 0.0
2017-Jun-19 17:00N 39°49' W 075°24'0 0.0
2017-Jun-19 16:30N 39°49' W 075°24'0 0.0
2017-Jun-19 16:00N 39°49' W 075°24'0 0.0
2017-Jun-19 15:30N 39°49' W 075°24'0 0.0
2017-Jun-19 15:00N 39°49' W 075°24'0 0.0
2017-Jun-19 14:30N 39°49' W 075°24'0 0.0
2017-Jun-19 13:30N 39°49' W 075°24'0 0.0
2017-Jun-19 13:00N 39°49' W 075°24'0 0.0
2017-Jun-19 12:30N 39°49' W 075°24'0 0.0
2017-Jun-19 12:00N 39°49' W 075°24'0 0.0
2017-Jun-19 11:30N 39°49' W 075°24'0 0.0
2017-Jun-19 11:00N 39°49' W 075°24'0 0.0
2017-Jun-19 10:30N 39°49' W 075°24'0 0.0
2017-Jun-19 10:00N 39°49' W 075°24'0 0.0
2017-Jun-19 09:31N 39°49' W 075°24'0 0.0
2017-Jun-19 09:00N 39°49' W 075°24'0 0.0
2017-Jun-19 08:30N 39°49' W 075°24'0 0.0
2017-Jun-19 08:00N 39°49' W 075°24'0 0.0
2017-Jun-19 07:30N 39°49' W 075°24'0 0.0
2017-Jun-19 07:00N 39°49' W 075°24'0 0.0
2017-Jun-19 06:30N 39°49' W 075°24'0 0.0
2017-Jun-19 06:00N 39°49' W 075°24'0 0.0
2017-Jun-19 05:30N 39°49' W 075°24'0 0.0
2017-Jun-19 05:00N 39°49' W 075°24'0 0.0
2017-Jun-19 04:30N 39°49' W 075°24'0 0.0
2017-Jun-19 04:01N 39°49' W 075°24'0 0.0
2017-Jun-19 03:30N 39°49' W 075°24'0 0.0
2017-Jun-19 03:00N 39°49' W 075°24'0 0.0
2017-Jun-19 02:30N 39°49' W 075°24'0 0.9
2017-Jun-19 02:00N 39°48' W 075°25'2 4.0
2017-Jun-19 01:30N 39°47' W 075°27'2 3.6
2017-Jun-19 01:00N 39°46' W 075°29'2 4.3
2017-Jun-19 00:30N 39°44' W 075°30'3 5.1
2017-Jun-19 00:00N 39°42' W 075°31'3 5.6
2017-Jun-18 23:30N 39°39' W 075°33'3 5.9
2017-Jun-18 23:00N 39°37' W 075°35'3 5.9
2017-Jun-18 22:30N 39°34' W 075°34'3 6.8
2017-Jun-18 22:00N 39°33' W 075°38'4 7.6
2017-Jun-18 21:30N 39°33' W 075°43'4 8.2
2017-Jun-18 21:00N 39°32' W 075°48'4 7.8
2017-Jun-18 20:30N 39°31' W 075°53'4 8.3
2017-Jun-18 20:00N 39°29' W 075°57'4 8.4
2017-Jun-18 19:30N 39°26' W 076°01'4 8.2
2017-Jun-18 19:00N 39°23' W 076°05'4 8.7
2017-Jun-18 18:30N 39°21' W 076°10'4 8.5
2017-Jun-18 18:00N 39°17' W 076°14'5 8.4
2017-Jun-18 17:24N 39°13' W 076°15'3 8.2
2017-Jun-18 16:59N 39°10' W 076°18'4 7.6
2017-Jun-18 16:30N 39°07' W 076°20'4 8.0
2017-Jun-18 16:00N 39°03' W 076°21'4 8.6
2017-Jun-18 15:30N 38°59' W 076°23'6 8.4
2017-Jun-18 14:45N 38°53' W 076°25'2 8.1
2017-Jun-18 14:30N 38°51' W 076°26'13 7.9
2017-Jun-18 12:52N 38°38' W 076°27'4 8.0
2017-Jun-18 12:26N 38°34' W 076°27'10 8.0
2017-Jun-18 11:08N 38°25' W 076°22'4 7.9
2017-Jun-18 10:41N 38°21' W 076°20'4 7.8
2017-Jun-18 10:11N 38°18' W 076°19'2 7.8
2017-Jun-18 09:59N 38°16' W 076°19'4 7.7
2017-Jun-18 09:29N 38°12' W 076°17'5 7.5
2017-Jun-18 08:51N 38°08' W 076°16'3 7.5
2017-Jun-18 08:25N 38°05' W 076°15'3 7.4
2017-Jun-18 07:59N 38°02' W 076°13'48 1.4
2017-Jun-16 22:41N 38°49' W 076°26'2 9.9
2017-Jun-16 22:30N 38°50' W 076°26'510.2
2017-Jun-16 22:01N 38°55' W 076°24'510.5
2017-Jun-16 21:31N 39°00' W 076°23'510.2
2017-Jun-16 21:00N 39°05' W 076°20'5 9.2
2017-Jun-16 20:30N 39°10' W 076°19'5 9.9
2017-Jun-16 20:00N 39°14' W 076°15'5 9.7
2017-Jun-16 19:30N 39°18' W 076°13'5 9.0
2017-Jun-16 18:54N 39°22' W 076°08'  
Track history (hours):
 
Tides and Currents Weather Stations Pressure Air Temp Water Temp Dewpoint Dewpoint Depression Visibility Wind Speed Wind Dir Waves Ship Positions

Morton S Bouchard Jr

Owner: BOUCHARD TRANSPORTATION CO INC, MELVILLE, NY. More information available from US FCC via Universal Licensing System and Coast Guard Vessel Documentation Center.

Last reported at 2017-Jun-26 18:30 UTC. Time now 2017-Jun-26 18:49 UTC.
Position N 39°22' W 075°27'.

Length 33 m; draft 5.6 m.

Type: Tug. MMSI: 367006550.

Date/timePositionNaut miles runAvg speedWind from/ knotsBaromVisibWave heightAir tempDewpointWater temp
2017-Jun-26 18:30N 39°22' W 075°27'4 8.1
2017-Jun-26 18:00N 39°19' W 075°24'4 8.4
2017-Jun-26 17:30N 39°16' W 075°20'4 8.4
2017-Jun-26 17:00N 39°12' W 075°17'4 8.4
2017-Jun-26 16:30N 39°08' W 075°14'4 8.4
2017-Jun-26 16:00N 39°05' W 075°11'4 8.3
2017-Jun-26 15:29N 39°01' W 075°09'2 3.1
2017-Jun-26 14:59N 38°59' W 075°08'46 5.2
2017-Jun-26 06:05N 39°21' W 074°16'2 6.3
2017-Jun-26 05:47N 39°22' W 074°15'4 6.3
2017-Jun-26 05:11N 39°26' W 074°12'2 6.3
2017-Jun-26 04:55N 39°27' W 074°11'3 6.3
2017-Jun-26 04:30N 39°29' W 074°09'4 6.3
2017-Jun-26 03:52N 39°33' W 074°07'3 6.3
2017-Jun-26 03:27N 39°35' W 074°05'3 6.1
2017-Jun-26 02:59N 39°38' W 074°03'4 6.1
2017-Jun-26 02:20N 39°41' W 074°01'2 5.9
2017-Jun-26 01:59N 39°43' W 074°00'3 5.9
2017-Jun-26 01:30N 39°46' W 073°59'3 5.7
2017-Jun-26 00:59N 39°49' W 073°58'3 6.2
2017-Jun-26 00:30N 39°52' W 073°57'3 6.2
2017-Jun-25 23:58N 39°55' W 073°57'3 6.0
2017-Jun-25 23:26N 39°58' W 073°57'3 5.9
2017-Jun-25 23:00N 40°01' W 073°57'3 6.0
2017-Jun-25 22:29N 40°04' W 073°57'3 6.0
2017-Jun-25 22:00N 40°07' W 073°56'3 6.1
2017-Jun-25 21:30N 40°10' W 073°56'3 6.3
2017-Jun-25 20:58N 40°13' W 073°56'3 6.5
2017-Jun-25 20:30N 40°16' W 073°56'4 6.5
2017-Jun-25 19:56N 40°20' W 073°55'3 6.3
2017-Jun-25 19:25N 40°23' W 073°55'3 6.8
2017-Jun-25 19:00N 40°26' W 073°54'4 7.0
2017-Jun-25 18:29N 40°29' W 073°56'4 8.5
2017-Jun-25 18:00N 40°31' W 074°00'3 6.5
2017-Jun-25 17:30N 40°35' W 074°02'1 2.2
2017-Jun-25 17:00N 40°36' W 074°02'3 5.1
2017-Jun-25 16:30N 40°38' W 074°03'4 7.5
2017-Jun-25 16:00N 40°42' W 074°00'3 6.9
2017-Jun-25 15:30N 40°44' W 073°58'3 5.8
2017-Jun-25 15:00N 40°47' W 073°56'4 4.2
2017-Jun-25 14:00N 40°48' W 073°50'2 4.8
2017-Jun-25 13:30N 40°48' W 073°47'3 5.3
2017-Jun-25 13:00N 40°51' W 073°46'3 5.6
2017-Jun-25 12:26N 40°53' W 073°43'48 1.8
2017-Jun-24 09:13N 41°01' W 072°40'1 3.7
2017-Jun-24 08:54N 41°01' W 072°42'3 6.7
2017-Jun-24 08:31N 41°02' W 072°45'46 7.0
2017-Jun-24 01:54N 40°51' W 073°45'3 8.8
2017-Jun-24 01:30N 40°48' W 073°47'5 9.3
2017-Jun-24 01:00N 40°48' W 073°53'4 7.8
2017-Jun-24 00:30N 40°46' W 073°57'5 9.5
2017-Jun-24 00:00N 40°42' W 074°00'4 8.8
2017-Jun-23 23:31N 40°38' W 074°03'4 8.2
2017-Jun-23 23:00N 40°34' W 074°02'4 8.8
2017-Jun-23 22:30N 40°30' W 073°58'4 7.2
2017-Jun-23 22:01N 40°28' W 073°54'36 9.7
2017-Jun-23 18:18N 39°52' W 073°58'3 9.4
2017-Jun-23 17:59N 39°49' W 073°59'5 9.4
2017-Jun-23 17:30N 39°45' W 073°59'5 9.5
2017-Jun-23 17:00N 39°41' W 074°02'5 9.4
2017-Jun-23 16:29N 39°36' W 074°05'5 9.4
2017-Jun-23 15:58N 39°32' W 074°08'5 9.5
2017-Jun-23 15:27N 39°28' W 074°11'39 9.6
2017-Jun-23 11:22N 38°58' W 074°43'3 9.3
2017-Jun-23 11:00N 38°55' W 074°46'5 9.2
2017-Jun-23 10:31N 38°51' W 074°49'4 8.1
2017-Jun-23 10:00N 38°49' W 074°53'4 8.3
2017-Jun-23 09:31N 38°48' W 074°59'4 6.5
2017-Jun-23 08:52N 38°51' W 075°03'4 8.7
2017-Jun-23 08:27N 38°54' W 075°05'4 9.3
2017-Jun-23 08:00N 38°58' W 075°07'610.1
2017-Jun-23 07:28N 39°03' W 075°10'610.9
2017-Jun-23 06:56N 39°08' W 075°14'511.9
2017-Jun-23 06:30N 39°12' W 075°17'612.2
2017-Jun-23 06:00N 39°17' W 075°22'612.1
2017-Jun-23 05:30N 39°21' W 075°27'510.6
2017-Jun-23 05:00N 39°25' W 075°31'5 9.3
2017-Jun-23 04:31N 39°30' W 075°34'4 8.9
2017-Jun-23 04:01N 39°34' W 075°33'4 7.8
2017-Jun-23 03:31N 39°38' W 075°34'4 7.6
2017-Jun-23 03:00N 39°41' W 075°31'4 7.4
2017-Jun-23 02:30N 39°44' W 075°30'3 6.8
2017-Jun-23 02:00N 39°47' W 075°27'3 6.8
2017-Jun-23 01:30N 39°49' W 075°23'1 1.7
2017-Jun-23 01:00N 39°49' W 075°24'0 0.2
2017-Jun-23 00:30N 39°49' W 075°24'0 0.0
2017-Jun-23 00:00N 39°49' W 075°24'0 0.0
2017-Jun-22 23:30N 39°49' W 075°24'0 0.0
2017-Jun-22 23:00N 39°49' W 075°24'0 0.0
2017-Jun-22 22:30N 39°49' W 075°24'0 0.0
2017-Jun-22 22:00N 39°49' W 075°24'0 0.0
2017-Jun-22 21:30N 39°49' W 075°24'3 5.4
2017-Jun-22 21:00N 39°50' W 075°22'510.2
2017-Jun-22 20:30N 39°51' W 075°15'0 0.0
2017-Jun-22 20:00N 39°51' W 075°15'0 0.0
2017-Jun-22 19:30N 39°51' W 075°15'0 0.0
2017-Jun-22 19:01N 39°51' W 075°15'0 0.0
2017-Jun-22 18:30N 39°51' W 075°15'0 0.0
2017-Jun-22 18:00N 39°51' W 075°15'0 0.0
2017-Jun-22 17:30N 39°51' W 075°15'0 0.0
2017-Jun-22 17:01N 39°51' W 075°15'0 0.0
2017-Jun-22 16:30N 39°51' W 075°15'0 0.0
2017-Jun-22 16:00N 39°51' W 075°15'0 0.0
2017-Jun-22 15:31N 39°51' W 075°15'0 0.1
2017-Jun-22 15:01N 39°51' W 075°15'0 0.0
2017-Jun-22 14:30N 39°51' W 075°15'0 0.0
2017-Jun-22 13:30N 39°51' W 075°15'0 1.0
2017-Jun-22 13:00N 39°51' W 075°16'1 3.0
2017-Jun-22 12:31N 39°51' W 075°17'611.7
2017-Jun-22 12:01N 39°49' W 075°24'0 0.1
2017-Jun-22 11:30N 39°49' W 075°24'2 3.2
2017-Jun-22 11:00N 39°48' W 075°26'3 6.3
2017-Jun-22 10:31N 39°45' W 075°29'3 5.9
2017-Jun-22 10:01N 39°43' W 075°30'3 5.7
2017-Jun-22 09:31N 39°40' W 075°32'3 5.3
2017-Jun-22 09:01N 39°38' W 075°34'3 5.0
2017-Jun-22 08:30N 39°36' W 075°34'2 4.2
2017-Jun-22 08:00N 39°34' W 075°34'4 7.9
2017-Jun-22 07:31N 39°33' W 075°39'4 7.4
2017-Jun-22 07:00N 39°33' W 075°43'3 6.9
2017-Jun-22 06:31N 39°32' W 075°48'3 6.3
2017-Jun-22 06:00N 39°32' W 075°52'3 6.2
2017-Jun-22 05:31N 39°30' W 075°55'3 6.4
2017-Jun-22 05:01N 39°28' W 075°58'3 6.4
2017-Jun-22 04:30N 39°25' W 076°01'3 6.2
2017-Jun-22 04:00N 39°23' W 076°04'3 6.2
2017-Jun-22 03:30N 39°22' W 076°08'3 6.0
2017-Jun-22 03:01N 39°20' W 076°11'3 5.8
2017-Jun-22 02:31N 39°18' W 076°13'3 6.2
2017-Jun-22 02:00N 39°15' W 076°14'3 6.4
2017-Jun-22 01:30N 39°12' W 076°16'3 6.8
2017-Jun-22 01:00N 39°10' W 076°18'3 6.5
2017-Jun-22 00:31N 39°07' W 076°20'3 6.4
2017-Jun-22 00:01N 39°03' W 076°21'3 7.0
2017-Jun-21 23:30N 39°00' W 076°23'4 7.5
2017-Jun-21 23:00N 38°57' W 076°24'4 7.6
2017-Jun-21 22:30N 38°53' W 076°25'4 7.8
2017-Jun-21 22:00N 38°49' W 076°26'24 0.7
2017-Jun-20 10:10N 38°26' W 076°22'210.3
2017-Jun-20 09:57N 38°28' W 076°23'510.2
2017-Jun-20 09:29N 38°32' W 076°26'6 9.7
2017-Jun-20 08:49N 38°38' W 076°27'3 9.7
2017-Jun-20 08:31N 38°41' W 076°28'5 9.6
2017-Jun-20 07:57N 38°46' W 076°28'4 9.4
2017-Jun-20 07:30N 38°51' W 076°26'5 9.3
2017-Jun-20 07:01N 38°55' W 076°24'4 8.8
2017-Jun-20 06:31N 38°59' W 076°23'4 8.4
2017-Jun-20 06:01N 39°03' W 076°21'4 8.6
2017-Jun-20 05:30N 39°07' W 076°20'4 8.0
2017-Jun-20 05:00N 39°11' W 076°17'5 9.1
2017-Jun-20 04:30N 39°15' W 076°14'5 9.4
2017-Jun-20 04:00N 39°19' W 076°12'5 9.8
2017-Jun-20 03:30N 39°22' W 076°07'510.0
2017-Jun-20 03:00N 39°25' W 076°02'510.2
2017-Jun-20 02:30N 39°29' W 075°57'510.4
2017-Jun-20 02:00N 39°32' W 075°52'510.2
2017-Jun-20 01:31N 39°32' W 075°46'510.5
2017-Jun-20 01:01N 39°33' W 075°39'4 8.9
2017-Jun-20 00:30N 39°34' W 075°33'4 7.3
2017-Jun-20 00:00N 39°38' W 075°34'4 7.5
2017-Jun-19 23:31N 39°41' W 075°31'4 7.3
2017-Jun-19 23:00N 39°44' W 075°30'4 7.1
2017-Jun-19 22:31N 39°47' W 075°27'3 5.0
2017-Jun-19 22:00N 39°49' W 075°24'0 0.1
2017-Jun-19 21:30N 39°49' W 075°24'0 0.0
2017-Jun-19 21:00N 39°49' W 075°24'0 0.0
2017-Jun-19 20:31N 39°49' W 075°24'0 0.1
2017-Jun-19 20:00N 39°49' W 075°24'0 0.0
2017-Jun-19 19:30N 39°49' W 075°24'0 0.0
2017-Jun-19 19:00N 39°49' W 075°24'0 0.0
2017-Jun-19 18:30N 39°49' W 075°24'0 0.0
2017-Jun-19 18:00N 39°49' W 075°24'0 0.0
2017-Jun-19 17:30N 39°49' W 075°24'0 0.0
2017-Jun-19 17:00N 39°49' W 075°24'0 0.0
2017-Jun-19 16:30N 39°49' W 075°24'0 0.0
2017-Jun-19 16:00N 39°49' W 075°24'0 0.0
2017-Jun-19 15:30N 39°49' W 075°24'0 0.0
2017-Jun-19 15:00N 39°49' W 075°24'0 0.0
2017-Jun-19 14:30N 39°49' W 075°24'0 0.0
2017-Jun-19 13:30N 39°49' W 075°24'0 0.0
2017-Jun-19 13:00N 39°49' W 075°24'0 0.0
2017-Jun-19 12:30N 39°49' W 075°24'0 0.0
2017-Jun-19 12:00N 39°49' W 075°24'0 0.0
2017-Jun-19 11:30N 39°49' W 075°24'0 0.0
2017-Jun-19 11:00N 39°49' W 075°24'0 0.0
2017-Jun-19 10:30N 39°49' W 075°24'0 0.0
2017-Jun-19 10:00N 39°49' W 075°24'0 0.0
2017-Jun-19 09:31N 39°49' W 075°24'0 0.0
2017-Jun-19 09:00N 39°49' W 075°24'0 0.0
2017-Jun-19 08:30N 39°49' W 075°24'0 0.0
2017-Jun-19 08:00N 39°49' W 075°24'0 0.0
2017-Jun-19 07:30N 39°49' W 075°24'0 0.0
2017-Jun-19 07:00N 39°49' W 075°24'0 0.0
2017-Jun-19 06:30N 39°49' W 075°24'0 0.0
2017-Jun-19 06:00N 39°49' W 075°24'0 0.0
2017-Jun-19 05:30N 39°49' W 075°24'0 0.0
2017-Jun-19 05:00N 39°49' W 075°24'0 0.0
2017-Jun-19 04:30N 39°49' W 075°24'0 0.0
2017-Jun-19 04:01N 39°49' W 075°24'0 0.0
2017-Jun-19 03:30N 39°49' W 075°24'0 0.0
2017-Jun-19 03:00N 39°49' W 075°24'0 0.0
2017-Jun-19 02:30N 39°49' W 075°24'0 0.9
2017-Jun-19 02:00N 39°48' W 075°25'2 4.0
2017-Jun-19 01:30N 39°47' W 075°27'2 3.6
2017-Jun-19 01:00N 39°46' W 075°29'2 4.3
2017-Jun-19 00:30N 39°44' W 075°30'3 5.1
2017-Jun-19 00:00N 39°42' W 075°31'3 5.6
2017-Jun-18 23:30N 39°39' W 075°33'3 5.9
2017-Jun-18 23:00N 39°37' W 075°35'3 5.9
2017-Jun-18 22:30N 39°34' W 075°34'3 6.8
2017-Jun-18 22:00N 39°33' W 075°38'4 7.6
2017-Jun-18 21:30N 39°33' W 075°43'4 8.2
2017-Jun-18 21:00N 39°32' W 075°48'4 7.8
2017-Jun-18 20:30N 39°31' W 075°53'4 8.3
2017-Jun-18 20:00N 39°29' W 075°57'4 8.4
2017-Jun-18 19:30N 39°26' W 076°01'4 8.2
2017-Jun-18 19:00N 39°23' W 076°05'4 8.7
2017-Jun-18 18:30N 39°21' W 076°10'4 8.5
2017-Jun-18 18:00N 39°17' W 076°14'5 8.4
2017-Jun-18 17:24N 39°13' W 076°15'3 8.2
2017-Jun-18 16:59N 39°10' W 076°18'4 7.6
2017-Jun-18 16:30N 39°07' W 076°20'4 8.0
2017-Jun-18 16:00N 39°03' W 076°21'4 8.6
2017-Jun-18 15:30N 38°59' W 076°23'6 8.4
2017-Jun-18 14:45N 38°53' W 076°25'2 8.1
2017-Jun-18 14:30N 38°51' W 076°26'13 7.9
2017-Jun-18 12:52N 38°38' W 076°27'4 8.0
2017-Jun-18 12:26N 38°34' W 076°27'10 8.0
2017-Jun-18 11:08N 38°25' W 076°22'4 7.9
2017-Jun-18 10:41N 38°21' W 076°20'4 7.8
2017-Jun-18 10:11N 38°18' W 076°19'2 7.8
2017-Jun-18 09:59N 38°16' W 076°19'4 7.7
2017-Jun-18 09:29N 38°12' W 076°17'5 7.5
2017-Jun-18 08:51N 38°08' W 076°16'3 7.5
2017-Jun-18 08:25N 38°05' W 076°15'3 7.4
2017-Jun-18 07:59N 38°02' W 076°13'48 1.4
2017-Jun-16 22:41N 38°49' W 076°26'2 9.9
2017-Jun-16 22:30N 38°50' W 076°26'510.2
2017-Jun-16 22:01N 38°55' W 076°24'510.5
2017-Jun-16 21:31N 39°00' W 076°23'510.2
2017-Jun-16 21:00N 39°05' W 076°20'5 9.2
2017-Jun-16 20:30N 39°10' W 076°19'5 9.9
2017-Jun-16 20:00N 39°14' W 076°15'5 9.7
2017-Jun-16 19:30N 39°18' W 076°13'5 9.0
2017-Jun-16 18:54N 39°22' W 076°08'  

Dump ship's entire track history